Airfield :
LOGIN :

Register | Disclaimer

   EN    FR    IT 

 










Legend :    VFR   Marginal VFR   IFR   Intensive IFR   Very Intensive IFR
Visi :
Ceiling :
>= 8 km
>= 3000ft
5 to 8 km
1000 to 3000 ft
1500m to 5 km
500 to 1000 ft
800 to 1500m
200 to 500 ft
< 800m
< 200 ft
Symbols :   Thunderstorms  Fog  Heavy snow  Heavy precipitations  Wind > 20 kt
SIGMETs :     Misc.  Thunderstorms  Icing  Turbulence  Mountain Waves  Volcanic Ashes







- Airport Elevation : 124 ft
- IATA code : NHT
- Download approach charts


EGWU - RAF Northolt

CURRENT METAR :
  • 230450Z AUTO 24011KT 9999 // SCT016/// BKN060/// 13/11 Q0987

EXPIRED METARs :
  • 230350Z AUTO 22013KT 9000 // FEW015/// SCT020/// BKN060/// 13/11 Q0986
  • 230250Z AUTO 21014KT 1300 // FEW013/// BKN041/// 13/11 Q0986

TAF TAF EGWU
Valid from the 23 at 00:00 until the 23 at 18:00 UTC


222243Z 2300/2318 20018G28KT 9999 FEW022 SCT040
PROB40
TEMPO 2300/2307 7000 SHRA BKN020
PROB30
TEMPO 2300/2303 20023G38KT 4500 +SHRA BKN014CB
BECMG 2303/2306 23016G27KT
TEMPO 2306/2310 24013KT
No reported NOTAMs for that airfield.
1 SIGMET reported for the London FIR (EGTT) :
 
Severe turbulence
EGTT SIGMET 01 VALID 230200/230600 EGRR
EGTT LONDON FIR SEV TURB FCST SE OF LINE N5000 W00200 - N5500 E00126 SFC/FL060 MOV E 25KT NC=



MET'MAP, your aeronautical weather chart ! - Copyright ORBIFLY December 2007 - Disclaimer

ORBIFLY MET'MAP TEAM :

Programming & Development : Alexandra Zaïnal
Concept & Development : Baudouin d'Aumeries
Co-Development & Prog : Marc-Olivier Méhu
Technical & hardware support : Manuel Goepfert

Contact : metmap@orbifly.com




SOURCES & CREDITS :

   NOAA